Time;durP1;ratioP1;P1;durP2;ratioP2;P2;SDS_P1;SDS_P2;PMS_P1;PMS_P2;Temp;Humidity;BMP_temperature;BMP_pressure;BME280_temperature;BME280_humidity;BME280_pressure;Samples;Min_cycle;Max_cycle;Signal;HPM_P1;HPM_P2
2022/01/13 00:02:36;;;;;;;28.77;25.02;;;;;;;2.98;84.56;102202.84;10508664;28;20041;-71
2022/01/13 00:07:38;;;;;;;29.92;25.48;;;;;;;3.12;83.81;102189.44;10492976;28;20518;-71
2022/01/13 00:12:43;;;;;;;29.08;25.95;;;;;;;3.06;83.48;102197.03;10508941;28;20036;-71
2022/01/13 00:18:03;;;;;;;34.47;26.10;;;;;;;3.04;84.02;102202.16;10502730;22;20044;-74
2022/01/13 00:23:40;;;;;;;33.60;27.50;;;;;;;2.80;84.98;102184.06;10507568;28;20049;-74
2022/01/13 00:28:29;;;;;;;28.42;25.40;;;;;;;2.88;85.07;102202.47;10505512;28;20048;-74
2022/01/13 00:33:30;;;;;;;28.77;25.17;;;;;;;3.00;84.06;102197.69;10487004;28;20114;-74
2022/01/13 00:38:32;;;;;;;20.35;18.20;;;;;;;2.92;82.78;102204.34;10505550;28;20045;-74
2022/01/13 00:43:39;;;;;;;17.65;16.05;;;;;;;2.91;82.32;102194.78;10486895;28;20477;-74
2022/01/13 00:48:41;;;;;;;16.88;15.30;;;;;;;2.90;81.66;102185.25;10487128;28;20477;-74
2022/01/13 00:53:43;;;;;;;16.10;14.10;;;;;;;2.90;80.68;102193.91;10504718;28;20501;-74
2022/01/13 00:58:45;;;;;;;13.35;12.10;;;;;;;2.86;79.92;102198.94;10485954;28;20040;-74
2022/01/13 01:03:46;;;;;;;12.30;10.93;;;;;;;2.70;80.00;102185.44;10470858;28;20115;-74
2022/01/13 01:08:48;;;;;;;12.88;11.40;;;;;;;2.66;80.48;102178.38;10504801;28;20141;-74
2022/01/13 01:13:51;;;;;;;14.80;13.40;;;;;;;2.52;81.01;102154.53;10485525;28;20055;-74
2022/01/13 01:19:01;;;;;;;16.08;14.68;;;;;;;2.49;81.35;102148.34;10484856;28;20135;-74
2022/01/13 01:24:26;;;;;;;14.02;12.77;;;;;;;2.27;82.07;102146.72;10485415;28;20044;-74
2022/01/13 01:29:38;;;;;;;15.18;13.80;;;;;;;2.09;82.81;102144.34;10502819;28;20090;-74
2022/01/13 01:34:54;;;;;;;14.75;13.40;;;;;;;1.91;83.00;102138.47;10468595;28;20052;-74
2022/01/13 01:39:58;;;;;;;13.98;12.57;;;;;;;1.91;83.25;102128.97;10486116;28;20540;-74
2022/01/13 01:45:01;;;;;;;13.95;12.65;;;;;;;1.78;83.90;102124.16;10468922;28;20056;-73
2022/01/13 01:50:12;;;;;;;14.80;12.13;;;;;;;1.86;83.06;102121.84;10484578;28;20048;-73
2022/01/13 01:55:15;;;;;;;12.40;11.10;;;;;;;1.77;83.52;102127.56;10502556;28;20043;-74
2022/01/13 02:00:19;;;;;;;11.70;10.60;;;;;;;1.93;82.87;102113.47;10466441;28;20139;-75
2022/01/13 02:05:21;;;;;;;12.85;11.50;;;;;;;1.69;83.02;102110.84;10484066;28;20052;-74
2022/01/13 02:10:23;;;;;;;12.98;11.02;;;;;;;1.71;83.10;102115.25;10483584;28;20551;-74
2022/01/13 02:15:34;;;;;;;12.15;10.95;;;;;;;1.81;82.31;102107.81;10501222;28;20063;-75
2022/01/13 02:20:53;;;;;;;13.32;10.05;;;;;;;1.68;83.08;102107.38;10483958;28;20489;-73
2022/01/13 02:25:55;;;;;;;10.82;9.70;;;;;;;1.68;82.57;102093.50;10501969;28;20041;-74
2022/01/13 02:30:57;;;;;;;10.13;9.25;;;;;;;1.73;82.80;102085.09;10501989;28;20048;-73
2022/01/13 02:35:58;;;;;;;9.63;8.73;;;;;;;1.79;82.28;102074.06;10500822;28;20497;-73
2022/01/13 02:41:02;;;;;;;8.75;8.05;;;;;;;1.85;82.14;102083.75;10500138;28;20130;-73
2022/01/13 02:51:32;;;;;;;11.68;10.55;;;;;;;1.51;83.47;102091.19;10499981;28;20044;-74
2022/01/13 02:56:36;;;;;;;12.63;10.20;;;;;;;1.60;83.21;102108.81;10481834;28;20098;-75
2022/01/13 03:01:39;;;;;;;10.88;9.88;;;;;;;1.61;83.35;102120.06;10500806;28;20033;-74
2022/01/13 03:06:41;;;;;;;10.85;9.85;;;;;;;1.49;84.06;102108.38;10481689;28;20532;-75
2022/01/13 03:11:44;;;;;;;11.27;10.23;;;;;;;1.56;83.50;102093.06;10499380;28;20397;-74
2022/01/13 03:16:46;;;;;;;10.98;9.98;;;;;;;1.88;82.19;102097.72;10498802;28;20036;-74
2022/01/13 03:21:48;;;;;;;10.90;9.35;;;;;;;1.83;82.19;102117.44;10501086;28;20041;-75
2022/01/13 03:26:49;;;;;;;11.38;9.95;;;;;;;1.85;82.13;102123.53;10488193;28;20417;-75
2022/01/13 03:31:51;;;;;;;10.40;9.48;;;;;;;1.81;82.80;102123.38;10489609;28;20098;-74
2022/01/13 03:36:53;;;;;;;11.93;10.65;;;;;;;1.97;81.17;102098.06;10489761;28;20059;-74
2022/01/13 03:41:55;;;;;;;12.32;10.70;;;;;;;1.96;81.09;102104.09;10506856;28;20078;-74
2022/01/13 03:47:02;;;;;;;10.38;9.38;;;;;;;2.07;80.71;102104.47;10506070;28;20041;-74
2022/01/13 03:52:13;;;;;;;;;;;;;;;2.11;80.01;102105.47;10508228;28;20437;-74
2022/01/13 03:57:52;;;;;;;11.07;8.15;;;;;;;2.01;80.42;102094.75;10506977;28;19921;-74
2022/01/13 04:02:53;;;;;;;9.80;8.90;;;;;;;2.05;80.03;102082.78;10505087;28;20107;-74
2022/01/13 04:07:56;;;;;;;10.43;8.77;;;;;;;2.05;79.82;102084.50;10503750;28;20076;-73
2022/01/13 04:12:58;;;;;;;9.38;8.48;;;;;;;2.09;79.92;102069.09;10504341;28;20038;-74
2022/01/13 04:17:59;;;;;;;8.43;7.63;;;;;;;2.08;79.96;102069.03;10503615;28;20490;-74
2022/01/13 04:23:01;;;;;;;8.60;7.38;;;;;;;2.19;79.18;102063.41;10503749;28;20066;-75
2022/01/13 04:28:04;;;;;;;8.50;7.22;;;;;;;2.20;79.05;102054.78;10503875;28;20044;-75
2022/01/13 04:33:05;;;;;;;7.28;6.50;;;;;;;2.13;79.12;102057.13;10501863;28;20055;-74
2022/01/13 04:38:07;;;;;;;7.90;7.20;;;;;;;2.12;78.87;102053.63;10485559;28;20048;-74
2022/01/13 04:43:09;;;;;;;8.23;7.53;;;;;;;2.20;78.32;102056.50;10484642;28;20127;-74
2022/01/13 04:48:10;;;;;;;7.82;6.97;;;;;;;2.14;78.52;102036.41;10502619;28;20498;-74
2022/01/13 04:53:12;;;;;;;8.05;7.25;;;;;;;2.11;78.45;102038.00;10484507;28;20452;-75
2022/01/13 04:58:14;;;;;;;14.45;7.30;;;;;;;2.14;78.38;102032.94;10502453;28;20044;-74
2022/01/13 05:03:16;;;;;;;9.60;7.20;;;;;;;2.09;78.55;102047.47;10502162;28;20040;-74
2022/01/13 05:08:18;;;;;;;11.98;6.85;;;;;;;2.28;77.96;102047.25;10501679;28;20146;-74
2022/01/13 05:13:19;;;;;;;8.18;7.38;;;;;;;2.17;78.50;102061.56;10501503;28;20560;-74
2022/01/13 05:18:42;;;;;;;8.02;7.22;;;;;;;2.15;78.64;102071.03;10482601;28;20052;-74
2022/01/13 05:23:43;;;;;;;7.43;6.70;;;;;;;2.27;78.08;102061.94;10500895;28;20041;-74
2022/01/13 05:28:45;;;;;;;6.97;6.38;;;;;;;2.35;77.99;102061.34;10482605;28;20056;-75
2022/01/13 05:33:47;;;;;;;7.22;6.63;;;;;;;2.39;77.66;102063.19;10500365;28;20044;-74
2022/01/13 05:38:50;;;;;;;7.50;6.80;;;;;;;2.30;77.83;102063.75;10500631;28;20045;-74
2022/01/13 05:43:52;;;;;;;7.25;6.55;;;;;;;2.48;77.62;102050.53;10500240;28;20508;-74
2022/01/13 05:48:54;;;;;;;9.10;8.02;;;;;;;2.37;78.02;102039.78;10500502;28;20074;-73
2022/01/13 05:53:55;;;;;;;8.02;7.35;;;;;;;2.32;78.61;102037.88;10500071;28;20082;-75
2022/01/13 05:58:57;;;;;;;9.38;8.52;;;;;;;2.40;78.34;102032.13;10500074;28;20045;-74
2022/01/13 06:03:58;;;;;;;8.82;7.93;;;;;;;2.44;78.22;102033.97;10500048;28;20048;-75
2022/01/13 06:09:00;;;;;;;8.88;8.00;;;;;;;2.49;78.16;102029.81;10499081;28;20079;-75
2022/01/13 06:14:01;;;;;;;9.63;8.73;;;;;;;2.46;78.36;102040.09;10498325;28;20105;-74
2022/01/13 06:19:03;;;;;;;9.63;8.82;;;;;;;2.53;77.64;102055.06;10495683;22;20456;-71
2022/01/13 06:24:05;;;;;;;11.60;9.15;;;;;;;2.61;77.43;102057.91;10501634;28;20045;-71
2022/01/13 06:29:07;;;;;;;10.10;9.10;;;;;;;2.57;77.76;102045.66;10501736;28;20053;-72
2022/01/13 06:34:09;;;;;;;10.20;8.82;;;;;;;2.69;77.04;102025.25;10503527;28;20052;-71
2022/01/13 06:39:10;;;;;;;11.98;8.38;;;;;;;2.70;76.94;102042.63;10501323;28;20489;-70
2022/01/13 06:44:17;;;;;;;10.13;9.00;;;;;;;2.65;77.38;102028.59;10500642;28;20094;-71
2022/01/13 06:49:19;;;;;;;8.73;8.02;;;;;;;2.68;77.03;102025.22;10500274;28;20048;-71
2022/01/13 06:54:21;;;;;;;10.20;9.20;;;;;;;2.74;76.97;102017.63;10502515;28;20113;-70
2022/01/13 06:59:23;;;;;;;10.50;9.40;;;;;;;2.70;77.40;102024.44;10507349;28;20550;-71
2022/01/13 07:04:24;;;;;;;10.75;9.77;;;;;;;2.71;77.84;102035.72;10508599;28;20044;-71
2022/01/13 07:09:26;;;;;;;13.10;10.43;;;;;;;2.73;78.21;102018.47;10508474;28;20044;-71
2022/01/13 07:14:30;;;;;;;12.07;10.80;;;;;;;2.80;78.06;102019.56;10506660;28;20048;-71
2022/01/13 07:19:32;;;;;;;11.70;9.70;;;;;;;2.88;78.42;102024.16;10507955;28;20047;-71
2022/01/13 07:24:34;;;;;;;11.60;9.95;;;;;;;2.97;77.63;102045.22;10505553;28;20052;-71
2022/01/13 07:29:35;;;;;;;11.10;10.00;;;;;;;3.06;77.40;102059.34;10506195;28;20037;-72
2022/01/13 07:34:37;;;;;;;11.23;10.10;;;;;;;2.87;78.33;102058.72;10503987;28;20553;-71
2022/01/13 07:39:39;;;;;;;10.82;8.95;;;;;;;3.15;76.65;102063.09;10508017;28;20052;-72
2022/01/13 07:44:40;;;;;;;11.50;8.98;;;;;;;3.06;77.66;102069.72;10504538;28;20044;-70
2022/01/13 07:49:42;;;;;;;32.53;22.70;;;;;;;2.98;78.28;102098.94;10504493;28;20100;-71
2022/01/13 07:54:44;;;;;;;12.15;8.80;;;;;;;3.19;77.57;102079.69;10505555;28;20128;-71
2022/01/13 07:59:46;;;;;;;48.65;28.23;;;;;;;3.05;78.29;102089.59;10506703;28;20036;-71
2022/01/13 08:04:49;;;;;;;22.85;16.13;;;;;;;3.31;76.83;102106.03;10506481;28;20383;-71
2022/01/13 08:09:50;;;;;;;9.90;8.90;;;;;;;3.25;76.28;102103.25;10503950;28;20082;-71
2022/01/13 08:14:52;;;;;;;13.68;10.65;;;;;;;3.23;76.56;102123.09;10506064;28;20040;-71
2022/01/13 08:19:54;;;;;;;9.25;8.35;;;;;;;3.31;76.02;102124.22;10468106;28;1105914;-71
2022/01/13 08:24:55;;;;;;;9.82;7.15;;;;;;;3.39;75.57;102101.06;10511514;28;20045;-71
2022/01/13 08:29:57;;;;;;;8.30;7.50;;;;;;;3.57;74.72;102103.34;10509626;28;20054;-71
2022/01/13 08:34:59;;;;;;;10.23;7.78;;;;;;;3.60;74.77;102100.84;10509425;28;20048;-72
2022/01/13 08:40:03;;;;;;;9.32;6.93;;;;;;;3.69;73.95;102085.50;10491509;28;20072;-71
2022/01/13 08:45:08;;;;;;;9.57;7.22;;;;;;;3.68;73.91;102061.22;10511774;28;20048;-70
2022/01/13 08:50:10;;;;;;;8.25;7.00;;;;;;;3.77;73.93;102069.28;10490072;28;20048;-70
2022/01/13 08:55:12;;;;;;;10.27;7.05;;;;;;;3.84;73.08;102078.13;10507634;28;20074;-71
2022/01/13 09:00:14;;;;;;;7.63;6.82;;;;;;;3.78;73.36;102076.25;10506864;28;20041;-71
2022/01/13 09:05:18;;;;;;;10.20;6.95;;;;;;;3.95;72.89;102074.13;10508918;28;20531;-72
2022/01/13 09:10:19;;;;;;;7.40;6.38;;;;;;;4.08;72.34;102059.72;10506208;28;20040;-71
2022/01/13 09:15:36;;;;;;;7.43;6.60;;;;;;;4.05;72.11;102060.50;10506024;28;20053;-72
2022/01/13 09:20:39;;;;;;;9.30;6.30;;;;;;;4.20;71.97;102075.66;10504629;28;20040;-71
2022/01/13 09:25:41;;;;;;;6.80;5.30;;;;;;;4.40;71.22;102063.19;10507843;28;20472;-71
2022/01/13 09:30:42;;;;;;;8.27;6.25;;;;;;;4.30;72.19;102051.66;10505933;28;20048;-72
2022/01/13 09:35:44;;;;;;;6.50;5.03;;;;;;;4.39;72.14;102037.97;10505043;28;20046;-70
2022/01/13 09:40:52;;;;;;;6.90;5.40;;;;;;;4.58;71.34;102038.44;10504663;28;20051;-71
2022/01/13 09:45:57;;;;;;;7.80;5.32;;;;;;;4.76;70.75;102050.19;10504303;28;20056;-71
2022/01/13 09:50:59;;;;;;;8.02;5.18;;;;;;;4.92;70.50;102046.22;10503173;28;20049;-71
2022/01/13 09:56:02;;;;;;;9.13;5.28;;;;;;;5.06;69.79;102047.44;10500715;28;20048;-72
2022/01/13 10:01:04;;;;;;;5.35;4.68;;;;;;;5.19;69.49;102042.50;10503146;28;20119;-73
2022/01/13 10:06:16;;;;;;;8.63;5.10;;;;;;;5.18;70.02;102051.13;10503272;28;20052;-73
2022/01/13 10:11:36;;;;;;;7.90;5.25;;;;;;;5.35;70.10;102038.47;10506792;28;20040;-72
2022/01/13 10:16:49;;;;;;;6.75;3.88;;;;;;;5.49;69.52;102060.50;10484195;28;20053;-72
2022/01/13 10:22:07;;;;;;;9.80;4.85;;;;;;;5.53;68.93;102038.88;10502999;28;20094;-73
2022/01/13 10:27:11;;;;;;;8.48;6.00;;;;;;;5.62;68.92;102026.00;10497193;28;20040;-74
2022/01/13 10:32:19;;;;;;;9.80;4.63;;;;;;;5.60;69.04;102024.25;10504915;28;20040;-73
2022/01/13 10:37:33;;;;;;;6.88;4.40;;;;;;;5.66;68.99;102020.00;10502641;28;20063;-74
2022/01/13 10:47:40;;;;;;;5.75;3.60;;;;;;;6.04;68.33;102015.56;10500308;28;20048;-73
2022/01/13 10:52:41;;;;;;;9.68;5.10;;;;;;;6.13;67.83;102029.66;10502800;28;20049;-74
2022/01/13 10:57:44;;;;;;;6.70;4.60;;;;;;;6.09;68.08;102027.84;10502096;28;20066;-74
2022/01/13 11:03:10;;;;;;;5.80;4.88;;;;;;;5.94;68.77;102025.81;10501628;28;20078;-72
2022/01/13 11:08:44;;;;;;;7.47;5.43;;;;;;;5.97;69.27;102015.41;10494489;28;20060;-73
2022/01/13 11:14:10;;;;;;;9.80;4.75;;;;;;;6.15;68.99;102015.75;10400974;28;20050;-73
2022/01/13 11:19:14;;;;;;;6.53;4.43;;;;;;;6.28;69.07;102011.63;10398576;28;20458;-74
2022/01/13 11:24:18;;;;;;;7.20;5.13;;;;;;;5.94;69.91;102013.66;10396908;28;20054;-74
2022/01/13 11:29:21;;;;;;;8.02;4.68;;;;;;;6.11;69.32;102013.06;10413617;28;20156;-75
2022/01/13 11:34:23;;;;;;;5.93;4.47;;;;;;;6.11;69.23;102010.44;10433583;28;20435;-75
2022/01/13 11:39:42;;;;;;;6.13;4.18;;;;;;;6.14;68.82;102013.13;10459975;28;20052;-74
2022/01/13 11:44:56;;;;;;;5.55;4.20;;;;;;;6.05;69.70;102006.00;10446414;28;20049;-72
2022/01/13 11:50:15;;;;;;;6.32;5.05;;;;;;;6.22;68.49;101998.47;10492832;28;20098;-73
2022/01/13 11:55:28;;;;;;;8.32;4.43;;;;;;;6.13;69.66;101982.66;10467092;28;20060;-72
2022/01/13 12:00:53;;;;;;;7.70;3.95;;;;;;;6.06;69.99;101972.09;10449991;28;20127;-71
2022/01/13 12:05:57;;;;;;;9.45;4.72;;;;;;;6.10;69.78;101975.63;10468652;28;20076;-72
2022/01/13 12:10:58;;;;;;;6.60;4.70;;;;;;;6.20;69.52;101959.28;10509306;28;20090;-71
2022/01/13 12:16:00;;;;;;;5.80;3.50;;;;;;;6.16;69.62;101951.38;10507417;28;20478;-72
2022/01/13 12:21:20;;;;;;;7.03;4.35;;;;;;;6.25;69.43;101938.47;10509752;28;20045;-71
2022/01/13 12:26:35;;;;;;;5.38;3.97;;;;;;;6.18;69.63;101939.22;10521061;22;20502;-77
2022/01/13 12:31:50;;;;;;;6.95;4.07;;;;;;;6.23;69.67;101919.28;10505158;28;20044;-78
2022/01/13 12:36:51;;;;;;;7.47;3.83;;;;;;;6.11;70.43;101919.06;10489171;28;20053;-75
2022/01/13 12:42:05;;;;;;;4.82;4.00;;;;;;;6.20;69.72;101896.63;10507805;28;20048;-76
2022/01/13 12:47:07;;;;;;;7.93;4.50;;;;;;;6.21;70.06;101892.28;10505263;28;20041;-76
2022/01/13 12:52:25;;;;;;;6.28;4.28;;;;;;;6.15;70.52;101890.41;10489955;28;20044;-77
2022/01/13 12:57:27;;;;;;;5.47;3.97;;;;;;;6.21;70.62;101880.09;10486007;28;20110;-76
2022/01/13 13:02:29;;;;;;;5.63;4.07;;;;;;;6.29;70.60;101878.47;10506893;28;20468;-78
2022/01/13 13:07:31;;;;;;;7.13;3.83;;;;;;;6.38;70.38;101879.47;10505804;28;20490;-77
2022/01/13 13:12:35;;;;;;;6.72;4.00;;;;;;;6.29;70.79;101882.81;10487940;28;20040;-76
2022/01/13 13:17:45;;;;;;;6.80;3.53;;;;;;;6.31;70.25;101888.94;10505275;28;20127;-75
2022/01/13 13:22:54;;;;;;;4.80;3.70;;;;;;;6.29;70.72;101886.31;10507182;28;20119;-77
2022/01/13 13:28:15;;;;;;;4.90;3.45;;;;;;;6.37;70.37;101872.47;10489181;28;20052;-77
2022/01/13 13:33:18;;;;;;;6.22;3.42;;;;;;;6.32;70.87;101860.22;10505502;28;20062;-76
2022/01/13 13:38:19;;;;;;;5.28;4.13;;;;;;;6.35;70.55;101850.69;10487786;28;20167;-77
2022/01/13 13:43:21;;;;;;;5.03;3.33;;;;;;;6.44;70.67;101850.81;10486428;28;20044;-76
2022/01/13 13:48:26;;;;;;;5.28;3.72;;;;;;;6.42;70.43;101840.38;10487133;28;20087;-77
2022/01/13 13:54:07;;;;;;;6.28;3.05;;;;;;;6.35;71.03;101827.19;10507350;28;20037;-76
2022/01/13 13:59:41;;;;;;;5.78;3.20;;;;;;;6.44;70.72;101817.72;10504752;28;20048;-76
2022/01/13 14:04:53;;;;;;;4.72;3.28;;;;;;;6.42;70.67;101822.06;10470375;28;20051;-77
2022/01/13 14:10:07;;;;;;;4.63;2.80;;;;;;;6.38;70.89;101816.78;10506762;28;20041;-77
2022/01/13 14:15:15;;;;;;;4.70;3.03;;;;;;;6.41;70.96;101809.84;10506457;28;20404;-77
2022/01/13 14:20:20;;;;;;;5.35;2.83;;;;;;;6.40;70.77;101815.06;10469054;28;20049;-76
2022/01/13 14:25:22;;;;;;;3.33;2.65;;;;;;;6.40;70.49;101799.38;10483768;28;20044;-76
2022/01/13 14:30:30;;;;;;;4.65;2.80;;;;;;;6.41;70.70;101801.13;10503969;28;20048;-77
2022/01/13 14:35:32;;;;;;;6.43;2.55;;;;;;;6.40;70.87;101786.31;10486535;28;20049;-77
2022/01/13 14:40:44;;;;;;;3.42;2.70;;;;;;;6.48;70.53;101785.56;10484621;28;20055;-77
2022/01/13 14:46:02;;;;;;;7.22;2.60;;;;;;;6.33;70.90;101774.94;10467847;28;20127;-76
2022/01/13 14:51:13;;;;;;;5.75;3.13;;;;;;;6.37;70.79;101771.47;10486075;28;20049;-77
2022/01/13 14:56:17;;;;;;;3.83;2.75;;;;;;;6.39;70.74;101768.91;10485816;28;20040;-76
2022/01/13 15:01:20;;;;;;;3.78;2.30;;;;;;;6.30;71.17;101767.06;10485136;28;20040;-77
2022/01/13 15:06:23;;;;;;;4.10;2.15;;;;;;;6.30;71.00;101767.94;10484620;28;20413;-76
2022/01/13 15:11:24;;;;;;;2.72;2.00;;;;;;;6.39;70.65;101758.47;10501677;28;20132;-76
2022/01/13 15:16:26;;;;;;;4.30;2.50;;;;;;;6.36;71.13;101761.91;10482727;28;20059;-77
2022/01/13 15:21:29;;;;;;;3.28;1.92;;;;;;;6.37;70.94;101754.94;10508521;28;20397;-76
2022/01/13 15:26:31;;;;;;;2.97;1.92;;;;;;;6.31;71.19;101769.66;10507817;28;20045;-77
2022/01/13 15:31:33;;;;;;;4.95;2.17;;;;;;;6.40;70.83;101776.75;10493096;28;20041;-77
2022/01/13 15:36:34;;;;;;;3.78;2.53;;;;;;;6.32;71.25;101778.38;10514969;28;20391;-76
2022/01/13 15:41:37;;;;;;;3.10;2.10;;;;;;;6.20;71.75;101793.91;10498418;28;20501;-76
2022/01/13 15:46:39;;;;;;;4.75;3.03;;;;;;;5.97;72.63;101812.69;10512164;28;20052;-77
2022/01/13 15:51:41;;;;;;;5.00;2.55;;;;;;;6.14;71.91;101806.84;10498795;28;20082;-77
2022/01/13 15:56:43;;;;;;;5.07;3.17;;;;;;;5.88;72.96;101815.13;10516150;28;20064;-77
2022/01/13 16:01:46;;;;;;;4.35;3.22;;;;;;;5.87;73.16;101815.09;10517131;28;20050;-77
2022/01/13 16:06:48;;;;;;;3.33;2.88;;;;;;;5.76;73.65;101825.38;10480812;28;20076;-76
2022/01/13 16:11:50;;;;;;;4.22;3.67;;;;;;;5.85;73.20;101828.13;10514614;28;20064;-77
2022/01/13 16:16:53;;;;;;;3.80;3.08;;;;;;;5.87;72.96;101830.75;10511319;28;20036;-77
2022/01/13 16:21:55;;;;;;;5.95;5.43;;;;;;;5.60;74.18;101836.41;10513407;28;20041;-77
2022/01/13 16:26:57;;;;;;;4.22;3.33;;;;;;;5.38;75.23;101841.22;10494490;28;20052;-77
2022/01/13 16:31:59;;;;;;;4.07;3.08;;;;;;;5.39;75.19;101852.53;10497348;28;20059;-78
2022/01/13 16:37:02;;;;;;;3.38;3.08;;;;;;;5.28;75.81;101850.63;10496073;28;20044;-78
2022/01/13 16:42:04;;;;;;;4.30;3.20;;;;;;;5.14;76.50;101849.47;10512979;28;20036;-77
2022/01/13 16:47:10;;;;;;;4.75;3.67;;;;;;;5.21;76.17;101851.34;10512237;28;20068;-77
2022/01/13 16:52:13;;;;;;;4.95;3.08;;;;;;;5.19;76.26;101849.56;10513174;28;20072;-77
2022/01/13 16:57:16;;;;;;;5.07;3.50;;;;;;;5.16;76.65;101859.94;10500215;28;20045;-77
2022/01/13 17:02:21;;;;;;;4.45;4.00;;;;;;;5.23;76.21;101862.69;10476639;28;20075;-77
2022/01/13 17:07:24;;;;;;;4.22;3.65;;;;;;;5.16;76.09;101863.41;10456802;28;20051;-76
2022/01/13 17:12:25;;;;;;;4.18;3.60;;;;;;;5.18;75.59;101855.59;10493569;28;20090;-76
2022/01/13 17:17:30;;;;;;;5.65;4.03;;;;;;;5.45;74.53;101856.16;10494847;28;20052;-77
2022/01/13 17:22:34;;;;;;;4.30;3.28;;;;;;;5.49;74.00;101857.06;10513253;28;20036;-77
2022/01/13 17:27:36;;;;;;;4.82;3.80;;;;;;;5.77;72.69;101853.22;10510657;28;20090;-77
2022/01/13 17:32:38;;;;;;;3.45;3.13;;;;;;;5.76;72.57;101841.91;10475043;28;20055;-77
2022/01/13 17:37:42;;;;;;;5.13;3.92;;;;;;;5.75;72.28;101852.31;10493296;28;20045;-76
2022/01/13 17:42:43;;;;;;;5.50;4.25;;;;;;;5.73;72.28;101844.47;10491800;28;20127;-76
2022/01/13 17:47:47;;;;;;;4.07;3.67;;;;;;;5.63;72.55;101841.69;10491138;28;20051;-77
2022/01/13 17:52:49;;;;;;;5.00;3.88;;;;;;;5.59;72.77;101839.88;10477466;28;20110;-77
2022/01/13 17:57:52;;;;;;;5.07;3.75;;;;;;;5.55;72.49;101842.41;10474353;28;20053;-77
2022/01/13 18:02:54;;;;;;;4.43;3.35;;;;;;;5.75;71.54;101834.91;10489228;28;20098;-76
2022/01/13 18:07:55;;;;;;;5.10;3.75;;;;;;;5.66;71.96;101820.84;10510270;28;20551;-76
2022/01/13 18:12:57;;;;;;;4.15;3.60;;;;;;;5.74;71.61;101824.47;10513893;28;20094;-78
2022/01/13 18:17:59;;;;;;;4.30;3.90;;;;;;;5.63;72.17;101821.69;10513741;28;20048;-77
2022/01/13 18:23:04;;;;;;;5.15;3.53;;;;;;;5.81;70.93;101832.44;10506076;23;20040;-70
2022/01/13 18:28:07;;;;;;;4.60;4.20;;;;;;;5.79;70.99;101833.25;10498592;28;20079;-71
2022/01/13 18:33:09;;;;;;;5.88;4.68;;;;;;;5.81;71.13;101835.03;10498904;28;20048;-69
2022/01/13 18:38:11;;;;;;;5.95;4.53;;;;;;;5.81;70.74;101839.38;10500018;28;20040;-69
2022/01/13 18:43:14;;;;;;;5.10;4.53;;;;;;;5.76;71.14;101843.66;10481358;28;20070;-69
2022/01/13 18:48:17;;;;;;;4.90;4.32;;;;;;;5.67;71.68;101849.59;10499366;28;20051;-69
2022/01/13 18:53:19;;;;;;;5.35;4.07;;;;;;;5.52;72.32;101838.88;10498716;28;20044;-70
2022/01/13 18:58:21;;;;;;;4.82;4.18;;;;;;;5.45;72.26;101845.72;10498704;28;20082;-70
2022/01/13 19:03:23;;;;;;;6.07;5.15;;;;;;;5.45;72.47;101842.25;10497561;28;20102;-69
2022/01/13 19:08:25;;;;;;;6.30;5.68;;;;;;;5.38;72.53;101840.34;10498606;28;20048;-69
2022/01/13 19:13:26;;;;;;;6.57;4.80;;;;;;;5.35;72.84;101835.94;10498578;28;20052;-69
2022/01/13 19:18:37;;;;;;;6.28;4.82;;;;;;;5.35;72.58;101830.72;10497401;28;20490;-69
2022/01/13 19:23:40;;;;;;;5.72;5.22;;;;;;;5.20;73.13;101833.06;10480428;28;20052;-69
2022/01/13 19:28:42;;;;;;;6.32;5.57;;;;;;;5.17;73.11;101825.19;10497955;28;20041;-69
2022/01/13 19:33:44;;;;;;;6.53;5.82;;;;;;;5.18;72.98;101827.84;10498766;28;20059;-72
2022/01/13 19:38:46;;;;;;;6.78;5.93;;;;;;;5.17;73.03;101827.78;10497387;28;20052;-69
2022/01/13 19:43:47;;;;;;;6.07;5.20;;;;;;;5.03;73.45;101817.97;10479270;28;20567;-68
2022/01/13 19:48:50;;;;;;;8.52;6.90;;;;;;;5.01;73.61;101816.22;10496814;28;20087;-68
2022/01/13 19:53:51;;;;;;;9.07;6.47;;;;;;;4.91;73.62;101824.66;10496043;28;20083;-70
2022/01/13 19:58:53;;;;;;;6.00;5.50;;;;;;;4.85;73.88;101819.34;10496249;28;20089;-68
2022/01/13 20:03:59;;;;;;;8.20;5.80;;;;;;;4.83;74.00;101813.25;10498414;28;20047;-69
2022/01/13 20:09:01;;;;;;;7.03;6.22;;;;;;;4.83;74.03;101821.06;10502704;28;20040;-69
2022/01/13 20:14:02;;;;;;;8.70;5.20;;;;;;;4.79;74.14;101815.78;10502221;28;20074;-69
2022/01/13 20:19:04;;;;;;;7.38;6.45;;;;;;;4.60;75.02;101823.16;10502380;28;20055;-68
2022/01/13 20:24:06;;;;;;;7.45;5.60;;;;;;;4.68;74.44;101829.41;10502357;28;20045;-68
2022/01/13 20:29:09;;;;;;;5.78;5.28;;;;;;;4.78;73.95;101824.44;10500656;28;20072;-69
2022/01/13 20:34:10;;;;;;;6.72;5.97;;;;;;;4.57;74.51;101829.19;10500690;28;20489;-68
2022/01/13 20:39:12;;;;;;;6.47;5.80;;;;;;;4.77;73.80;101820.06;10502106;28;20131;-69
2022/01/13 20:44:14;;;;;;;6.32;5.72;;;;;;;4.55;74.14;101812.66;10502019;28;20051;-68
2022/01/13 20:49:16;;;;;;;7.28;6.53;;;;;;;4.29;75.49;101812.06;10501425;28;20079;-68
2022/01/13 20:54:21;;;;;;;7.50;6.80;;;;;;;4.18;75.74;101813.56;10502687;28;20036;-68
2022/01/13 20:59:23;;;;;;;6.70;6.03;;;;;;;4.03;76.26;101808.91;10501955;28;20045;-69
2022/01/13 21:04:25;;;;;;;7.38;6.78;;;;;;;3.76;77.32;101807.41;10483540;28;20036;-69
2022/01/13 21:09:26;;;;;;;9.93;8.88;;;;;;;3.71;77.40;101801.19;10500714;28;20063;-70
2022/01/13 21:14:28;;;;;;;8.55;7.70;;;;;;;3.65;78.01;101785.44;10500125;28;20095;-70
2022/01/13 21:19:33;;;;;;;7.35;6.65;;;;;;;3.38;79.02;101776.97;10500765;28;20063;-68
2022/01/13 21:24:36;;;;;;;7.13;6.50;;;;;;;3.32;78.93;101772.50;10500793;28;20036;-69
2022/01/13 21:29:38;;;;;;;11.40;8.02;;;;;;;3.31;78.80;101775.03;10500176;28;20456;-69
2022/01/13 21:34:40;;;;;;;6.75;6.15;;;;;;;3.13;79.85;101768.53;10499713;28;20060;-69
2022/01/13 21:39:41;;;;;;;8.13;6.07;;;;;;;3.08;80.19;101769.25;10499714;28;20095;-69
2022/01/13 21:44:44;;;;;;;7.93;7.13;;;;;;;3.10;80.29;101759.75;10499444;28;20040;-69
2022/01/13 21:49:48;;;;;;;7.30;6.70;;;;;;;3.12;80.15;101758.09;10499761;28;20044;-69
2022/01/13 21:54:51;;;;;;;7.57;6.90;;;;;;;3.41;78.91;101738.94;10499125;28;20040;-69
2022/01/13 21:59:53;;;;;;;7.47;6.78;;;;;;;3.39;78.83;101742.31;10481466;28;20059;-69
2022/01/13 22:04:55;;;;;;;7.13;6.40;;;;;;;3.24;79.18;101735.91;10498957;28;20571;-69
2022/01/13 22:09:58;;;;;;;8.38;6.93;;;;;;;3.16;79.79;101741.75;10481311;28;20453;-69
2022/01/13 22:14:59;;;;;;;6.65;5.88;;;;;;;3.11;79.89;101732.97;10498496;28;20067;-69
2022/01/13 22:20:02;;;;;;;6.88;6.18;;;;;;;3.43;78.26;101728.56;10498846;28;20045;-69
2022/01/13 22:25:05;;;;;;;6.75;6.13;;;;;;;3.49;78.07;101734.78;10498247;28;20044;-69
2022/01/13 22:30:08;;;;;;;6.85;6.20;;;;;;;3.88;76.20;101739.16;10498054;28;20040;-69
2022/01/13 22:35:10;;;;;;;7.78;6.57;;;;;;;3.61;77.09;101738.53;10498069;28;20052;-69
2022/01/13 22:40:14;;;;;;;7.03;6.30;;;;;;;3.74;76.58;101733.66;10517730;28;20111;-68
2022/01/13 22:45:16;;;;;;;7.32;6.45;;;;;;;3.95;75.71;101737.59;10539495;28;20614;-68
2022/01/13 22:50:18;;;;;;;7.63;6.85;;;;;;;3.69;76.60;101737.00;10539045;28;20047;-68
2022/01/13 22:55:20;;;;;;;8.65;7.75;;;;;;;3.65;76.98;101745.56;10539770;28;20134;-69
2022/01/13 23:00:36;;;;;;;8.75;7.93;;;;;;;3.73;76.04;101733.63;10521960;28;20081;-68
2022/01/13 23:05:38;;;;;;;8.80;7.95;;;;;;;3.76;76.10;101728.47;10539040;28;20408;-69
2022/01/13 23:10:40;;;;;;;7.43;6.68;;;;;;;3.70;76.20;101723.13;10539670;28;20044;-68
2022/01/13 23:26:22;;;;;;;9.13;8.32;;;;;;;3.62;76.34;101722.06;10538714;28;20105;-68
2022/01/13 23:31:24;;;;;;;9.40;8.60;;;;;;;3.52;75.98;101724.47;10538604;28;20102;-68
2022/01/13 23:36:27;;;;;;;10.93;9.07;;;;;;;3.59;76.28;101724.63;10537871;28;20055;-70
2022/01/13 23:41:31;;;;;;;10.93;9.32;;;;;;;3.35;76.82;101723.16;10526604;28;20048;-68
2022/01/13 23:51:54;;;;;;;11.15;10.05;;;;;;;2.85;79.09;101724.47;10546596;28;20036;-68
2022/01/13 23:56:56;;;;;;;10.27;9.15;;;;;;;3.12;77.71;101717.41;10545333;28;20177;-68
